createdAt,value
2022-08-09T03:51:55.814Z,20.85
2022-08-09T03:54:54.870Z,20.85
2022-08-09T03:58:06.356Z,20.55
2022-08-09T04:01:19.113Z,20.57
2022-08-09T04:04:24.605Z,20.60
2022-08-09T04:07:47.560Z,20.58
2022-08-09T04:10:52.783Z,20.51
2022-08-09T04:14:37.024Z,20.42
2022-08-09T04:17:19.665Z,20.34
2022-08-09T04:20:24.173Z,20.45
2022-08-09T04:23:28.599Z,20.56
2022-08-09T04:26:37.906Z,20.68
2022-08-09T04:29:41.029Z,20.87
2022-08-09T04:32:54.128Z,21.03
2022-08-09T04:35:57.055Z,20.97
2022-08-09T04:39:02.636Z,20.99
2022-08-09T04:42:09.371Z,21.13
2022-08-09T04:45:12.148Z,21.10
2022-08-09T04:48:15.760Z,21.16
2022-08-09T04:51:18.245Z,21.06
2022-08-09T04:54:22.985Z,21.17
2022-08-09T04:57:26.891Z,21.20
2022-08-09T05:00:49.928Z,21.28
2022-08-09T05:03:56.888Z,21.38
2022-08-09T05:07:01.420Z,21.30
2022-08-09T05:10:04.679Z,21.40
2022-08-09T05:13:08.401Z,21.43
2022-08-09T05:16:15.718Z,21.44
2022-08-09T05:19:24.407Z,21.53
2022-08-09T05:22:36.030Z,21.69
2022-08-09T05:25:51.825Z,21.88
2022-08-09T05:28:54.450Z,22.04
2022-08-09T05:32:02.349Z,22.16
2022-08-09T05:35:05.783Z,22.20
2022-08-09T05:38:08.462Z,22.41
2022-08-09T05:41:12.749Z,22.59
2022-08-09T05:44:16.165Z,22.62
2022-08-09T05:47:27.282Z,22.72
2022-08-09T05:50:51.356Z,22.86
2022-08-09T05:53:57.876Z,23.01
2022-08-09T05:57:01.008Z,23.20
2022-08-09T06:00:07.959Z,23.36
2022-08-09T06:03:19.894Z,23.49
2022-08-09T06:06:23.700Z,23.59
2022-08-09T06:09:54.074Z,23.72
2022-08-09T06:12:50.407Z,23.83
2022-08-09T06:16:05.431Z,23.99
2022-08-09T06:19:08.433Z,23.97
2022-08-09T06:22:15.420Z,24.03
2022-08-09T06:25:18.716Z,24.10
2022-08-09T06:28:27.531Z,24.10
2022-08-09T06:31:40.390Z,24.12
2022-08-09T06:34:58.812Z,24.15
2022-08-09T06:38:06.298Z,24.27
2022-08-09T06:41:18.922Z,24.41
2022-08-09T06:44:22.221Z,24.55
2022-08-09T06:47:39.407Z,24.74
2022-08-09T06:50:43.028Z,24.78
2022-08-09T06:53:45.722Z,24.97
2022-08-09T06:56:52.598Z,25.08
2022-08-09T07:00:49.541Z,25.28
2022-08-09T07:03:18.539Z,25.36
2022-08-09T07:06:27.964Z,25.43
2022-08-09T07:09:55.637Z,25.81
2022-08-09T07:12:57.128Z,25.90
2022-08-09T07:16:43.153Z,25.97
2022-08-09T07:19:23.928Z,25.98
2022-08-09T07:22:27.372Z,26.09
2022-08-09T07:25:42.667Z,26.19
2022-08-09T07:29:11.780Z,26.34
2022-08-09T07:32:08.820Z,26.17
2022-08-09T07:35:13.137Z,26.29
2022-08-09T07:38:17.464Z,26.52
2022-08-09T07:41:20.196Z,26.51
2022-08-09T07:44:24.019Z,26.52
2022-08-09T07:47:49.635Z,26.72
2022-08-09T07:51:03.018Z,26.56
2022-08-09T07:54:19.102Z,26.69
2022-08-09T07:57:33.849Z,26.24
2022-08-09T08:00:56.008Z,26.05
2022-08-09T08:04:10.595Z,26.20
2022-08-09T08:07:57.237Z,26.41
2022-08-09T08:10:37.071Z,26.63
2022-08-09T08:13:55.915Z,26.72
2022-08-09T08:17:01.062Z,26.77
2022-08-09T08:20:15.953Z,26.77
2022-08-09T08:23:20.866Z,26.95
2022-08-09T08:26:55.084Z,27.33
2022-08-09T08:29:53.988Z,27.20
2022-08-09T08:32:56.780Z,27.15
2022-08-09T08:36:03.500Z,27.53
2022-08-09T08:39:08.364Z,27.72
2022-08-09T08:42:13.708Z,27.90
2022-08-09T08:45:37.387Z,28.24
2022-08-09T08:48:51.171Z,28.12
2022-08-09T08:52:01.570Z,27.84
2022-08-09T08:55:07.609Z,27.80
2022-08-09T08:58:11.110Z,27.85
2022-08-09T09:01:24.760Z,27.94
2022-08-09T09:04:37.868Z,28.01
2022-08-09T09:07:52.267Z,28.27
2022-08-09T09:10:56.488Z,28.67
2022-08-09T09:14:03.647Z,28.75
2022-08-09T09:17:06.012Z,29.36
2022-08-09T09:20:15.944Z,29.60
2022-08-09T09:23:39.296Z,29.52
2022-08-09T09:26:53.576Z,29.60
2022-08-09T09:30:26.144Z,29.60
2022-08-09T09:33:49.072Z,29.60
2022-08-09T09:37:42.104Z,29.56
2022-08-09T09:41:12.281Z,29.31
2022-08-09T09:44:41.179Z,29.47
2022-08-09T09:48:03.847Z,29.55
2022-08-09T09:51:07.573Z,29.68
2022-08-09T09:54:22.683Z,29.35
2022-08-09T09:58:02.471Z,29.46
2022-08-09T10:00:59.026Z,29.80
2022-08-09T10:04:09.439Z,29.86
2022-08-09T10:07:23.950Z,30.13
2022-08-09T10:10:31.342Z,30.39
2022-08-09T10:13:43.261Z,30.43
2022-08-09T10:16:58.263Z,30.21
2022-08-09T10:20:31.844Z,30.41
2022-08-09T10:23:37.489Z,30.41
2022-08-09T10:26:42.651Z,30.54
2022-08-09T10:30:48.061Z,30.20
2022-08-09T10:34:04.916Z,30.31
2022-08-09T10:36:36.377Z,30.40
2022-08-09T10:39:49.121Z,30.58
2022-08-09T10:42:53.007Z,30.51
2022-08-09T10:45:59.809Z,30.65
2022-08-09T10:49:14.544Z,30.70
2022-08-09T10:52:33.910Z,30.85
2022-08-09T10:55:55.731Z,30.86
2022-08-09T10:59:03.140Z,30.61
2022-08-09T11:03:11.282Z,30.41
2022-08-09T11:05:31.465Z,30.25
2022-08-09T11:08:47.127Z,30.46
2022-08-09T11:11:58.012Z,30.72
2022-08-09T11:15:33.653Z,31.32
2022-08-09T11:18:45.757Z,31.42
2022-08-09T11:22:10.636Z,31.45
2022-08-09T11:25:44.543Z,31.60
2022-08-09T11:28:56.209Z,31.29
2022-08-09T11:32:00.436Z,31.29
2022-08-09T11:35:10.576Z,31.21
2022-08-09T11:38:18.773Z,31.35
2022-08-09T11:41:37.408Z,31.08
2022-08-09T11:44:45.540Z,31.19
2022-08-09T11:47:50.890Z,30.76
2022-08-09T11:52:48.826Z,30.15
2022-08-09T11:54:27.472Z,30.25
2022-08-09T11:57:47.491Z,30.46
2022-08-09T12:01:15.546Z,30.40
2022-08-09T12:04:32.555Z,30.72
2022-08-09T12:07:42.018Z,30.57
2022-08-09T12:10:49.781Z,30.64
2022-08-09T12:14:08.035Z,30.66
2022-08-09T12:17:34.400Z,30.39
2022-08-09T12:20:42.034Z,30.18
2022-08-09T12:24:02.923Z,30.32
2022-08-09T12:29:13.271Z,30.41
2022-08-09T12:30:43.709Z,30.39
2022-08-09T12:33:58.557Z,30.32
2022-08-09T12:37:22.340Z,30.40
2022-08-09T12:40:28.962Z,30.34
2022-08-09T12:44:07.031Z,30.60
2022-08-09T12:46:56.347Z,30.53
2022-08-09T12:50:19.628Z,30.39
2022-08-09T12:53:37.180Z,30.27
2022-08-09T12:56:53.838Z,30.16
2022-08-09T13:00:25.591Z,30.05
2022-08-09T13:03:56.630Z,30.08
2022-08-09T13:07:10.904Z,30.05
2022-08-09T13:10:13.654Z,30.20
2022-08-09T13:13:28.013Z,30.03
2022-08-09T13:16:46.084Z,29.70
2022-08-09T13:20:06.809Z,29.62
2022-08-09T13:24:17.459Z,29.60
2022-08-09T13:26:42.334Z,29.44
2022-08-09T13:30:04.370Z,29.38
2022-08-09T13:33:24.094Z,29.16
2022-08-09T13:36:41.070Z,29.26
2022-08-09T13:41:46.856Z,29.44
2022-08-09T13:43:09.810Z,29.46
2022-08-09T13:47:15.955Z,29.60
2022-08-09T13:49:51.539Z,29.71
2022-08-09T13:52:58.651Z,29.93
2022-08-09T13:56:01.413Z,30.05
2022-08-09T13:59:04.950Z,30.22
2022-08-09T14:02:10.543Z,30.19
2022-08-09T14:05:59.644Z,30.07
2022-08-09T14:08:36.035Z,30.07
2022-08-09T14:11:47.246Z,29.84
2022-08-09T14:14:53.458Z,29.84
2022-08-09T14:18:20.107Z,29.78
2022-08-09T14:21:24.152Z,29.85
2022-08-09T14:24:32.598Z,29.93
2022-08-09T14:27:37.049Z,29.80
2022-08-09T14:30:58.967Z,29.74
2022-08-09T14:34:04.107Z,29.61
2022-08-09T14:37:10.899Z,29.53
2022-08-09T14:40:14.603Z,29.56
2022-08-09T14:43:18.721Z,29.55
2022-08-09T14:46:58.036Z,29.63
2022-08-09T14:50:01.608Z,29.71
2022-08-09T14:53:11.590Z,29.89
2022-08-09T14:56:15.854Z,29.73
2022-08-09T14:59:18.212Z,29.72
2022-08-09T15:02:23.927Z,29.76
2022-08-09T15:05:26.240Z,29.78
2022-08-09T15:08:30.503Z,29.74
